Terminal Aerodrome Forecast
Issued by NWS

Home | Current Version | Previous Version | Text Only | Print | Product List | Glossary On
Versions: 1 2 3 4 5 6 7 8 9 10 11 12 13 14 15 16 17 18 19 20 21 22 23 24 25 26
000
FTUS45 KSLC 282011 AAB
TAFENV
TAF AMD
KENV 282011Z 2820/2918 02015G22KT P6SM VCSH SCT030 BKN060
      TEMPO 2820/2821 05015KT 3SM -SN BR SCT025 BKN050
     FM282100 29010KT P6SM VCSH SCT030 BKN060
     FM290900 VRB04KT P6SM BKN090
      AMD LTD TO CLD VIS AND WIND=

USA.gov is the U.S. government's official web portal to all federal, state and local government web resources and services.